createdAt,value
2019-05-22T15:16:59.505Z,73.4
2019-05-22T15:18:00.701Z,75.4
2019-05-22T15:19:01.369Z,75.0
2019-05-22T15:20:02.154Z,75.3
2019-05-22T15:21:02.861Z,76.0
2019-05-22T15:22:03.532Z,77.2
2019-05-22T15:23:04.231Z,77.4
2019-05-22T15:24:04.945Z,77.6
2019-05-22T15:25:05.634Z,78.5
2019-05-22T15:26:06.335Z,78.1
2019-05-22T15:27:07.031Z,79.7
2019-05-22T15:28:07.733Z,81.3
2019-05-22T15:29:08.437Z,81.2
2019-05-22T15:30:09.159Z,79.4
2019-05-22T15:31:09.907Z,79.8
2019-05-22T15:32:10.627Z,81.2
2019-05-22T15:33:11.325Z,81.8
2019-05-22T15:34:12.067Z,79.5
2019-05-22T15:35:12.742Z,80.3
2019-05-22T15:36:13.426Z,79.3
2019-05-22T15:37:14.120Z,77.0
2019-05-22T15:38:14.818Z,77.1
2019-05-22T15:39:15.520Z,78.6
2019-05-22T15:40:16.223Z,79.0
2019-05-22T15:41:16.928Z,79.5
2019-05-22T15:42:17.627Z,79.9
2019-05-22T15:43:18.332Z,78.2
2019-05-22T15:44:19.027Z,78.8
2019-05-22T15:45:19.726Z,78.8
2019-05-22T15:46:20.425Z,80.3
2019-05-22T15:47:21.121Z,79.2
2019-05-22T15:48:21.818Z,77.2
2019-05-22T15:49:22.522Z,77.9
2019-05-22T15:50:26.632Z,76.9
2019-05-22T15:51:23.924Z,77.0
2019-05-22T15:52:24.648Z,79.1
2019-05-22T15:53:25.329Z,79.6
2019-05-22T15:54:26.028Z,76.3
2019-05-22T15:55:26.716Z,75.6
2019-05-22T15:56:27.413Z,76.2
2019-05-22T15:57:28.108Z,77.7
2019-05-22T15:58:28.847Z,77.5
2019-05-22T15:59:29.535Z,79.6
2019-05-22T16:00:30.201Z,78.6
2019-05-22T16:01:30.891Z,80.1
2019-05-22T16:02:31.609Z,77.7
2019-05-22T16:03:32.272Z,77.4
2019-05-22T16:04:32.972Z,77.7
2019-05-22T16:05:33.672Z,80.3
2019-05-22T16:06:34.338Z,81.1
2019-05-22T16:07:35.032Z,78.8
2019-05-22T16:08:35.758Z,78.6
2019-05-22T16:09:36.430Z,76.9
2019-05-22T16:10:37.124Z,75.8
2019-05-22T16:11:37.821Z,77.1
2019-05-22T16:12:38.527Z,76.6
2019-05-22T16:13:39.264Z,76.0
2019-05-22T16:14:39.980Z,77.2
2019-05-22T16:15:40.680Z,77.8
2019-05-22T16:16:41.381Z,77.5
2019-05-22T16:17:42.072Z,76.4
2019-05-22T16:18:42.771Z,77.6
2019-05-22T16:19:43.470Z,76.9
2019-05-22T16:20:44.209Z,76.9
2019-05-22T16:21:44.857Z,77.1
2019-05-22T16:22:45.551Z,77.6
2019-05-22T16:23:46.343Z,77.4
2019-05-22T16:24:46.948Z,76.8
2019-05-22T16:25:47.659Z,77.1
2019-05-22T16:26:48.342Z,77.6
2019-05-22T16:27:49.039Z,78.0
2019-05-22T16:28:49.743Z,76.3
2019-05-22T16:29:50.409Z,76.4
2019-05-22T16:30:51.169Z,77.0
2019-05-22T16:31:51.829Z,77.1
2019-05-22T16:32:52.520Z,77.1
2019-05-22T16:33:53.283Z,79.4
2019-05-22T16:34:53.915Z,80.3
2019-05-22T16:35:54.615Z,78.6
2019-05-22T16:36:55.315Z,79.2
2019-05-22T16:37:56.012Z,78.5
2019-05-22T16:38:56.711Z,79.3
2019-05-22T16:39:57.410Z,83.1
2019-05-22T16:40:58.120Z,84.2
2019-05-22T16:41:58.871Z,81.8
2019-05-22T16:42:59.493Z,79.2
2019-05-22T16:44:00.188Z,79.3
2019-05-22T16:45:00.885Z,78.8
2019-05-22T16:46:01.579Z,79.9
2019-05-22T16:47:02.274Z,83.4
2019-05-22T16:48:02.969Z,84.0
2019-05-22T16:49:03.670Z,83.3
2019-05-22T16:50:04.369Z,82.5
2019-05-22T16:51:05.064Z,81.5
2019-05-22T16:52:05.761Z,83.8
2019-05-22T16:53:06.455Z,85.4
2019-05-22T16:54:07.241Z,85.9
2019-05-22T16:55:07.852Z,86.3
2019-05-22T16:56:08.543Z,85.8
2019-05-22T16:57:09.243Z,86.2
2019-05-22T16:58:10.042Z,86.3
2019-05-22T16:59:10.632Z,85.1
2019-05-22T17:00:11.332Z,83.1
2019-05-22T17:01:12.044Z,81.7
2019-05-22T17:02:12.757Z,80.6
2019-05-22T17:03:13.446Z,83.6
2019-05-22T17:04:14.154Z,86.2
2019-05-22T17:05:14.850Z,83.5
2019-05-22T17:06:15.572Z,84.6
2019-05-22T17:07:16.266Z,84.0
2019-05-22T17:08:16.949Z,83.6
2019-05-22T17:09:17.640Z,88.5
2019-05-22T17:10:18.357Z,93.1
2019-05-22T17:11:19.037Z,93.9
2019-05-22T17:12:19.743Z,94.1
2019-05-22T17:13:20.439Z,90.5
2019-05-22T17:14:21.191Z,88.2
2019-05-22T17:15:21.828Z,86.8
2019-05-22T17:16:22.498Z,87.9
2019-05-22T17:17:23.201Z,90.1
2019-05-22T17:18:23.893Z,90.5
2019-05-22T17:19:27.570Z,87.6
2019-05-22T17:20:25.301Z,87.2
2019-05-22T17:21:26.067Z,87.3
2019-05-22T17:22:26.776Z,89.0
2019-05-22T17:23:27.468Z,91.1
2019-05-22T17:24:28.180Z,93.0
2019-05-22T17:25:28.869Z,93.9
2019-05-22T17:26:29.572Z,95.2
2019-05-22T17:27:30.263Z,95.8
2019-05-22T17:28:30.956Z,95.8
2019-05-22T17:29:31.655Z,97.3
2019-05-22T17:30:32.351Z,97.7
2019-05-22T17:31:33.055Z,97.6
2019-05-22T17:32:33.745Z,96.3
2019-05-22T17:33:34.448Z,97.6
2019-05-22T17:34:35.154Z,96.7
2019-05-22T17:35:35.855Z,97.2
2019-05-22T17:36:36.554Z,97.4
2019-05-22T17:37:37.259Z,97.3
2019-05-22T17:38:37.947Z,96.3
2019-05-22T17:39:38.654Z,96.1
2019-05-22T17:40:39.338Z,97.5
2019-05-22T17:41:40.041Z,98.1
2019-05-22T17:42:40.739Z,97.3
2019-05-22T17:43:41.478Z,96.0
2019-05-22T17:44:42.195Z,96.9
2019-05-22T17:45:42.903Z,98.6
2019-05-22T17:46:43.580Z,98.5
2019-05-22T17:47:44.278Z,99.3
2019-05-22T17:48:44.979Z,99.0
2019-05-22T17:49:45.767Z,99.1
2019-05-22T17:50:46.424Z,99.6
2019-05-22T17:51:47.122Z,100.0
2019-05-22T17:52:47.884Z,100.0
2019-05-22T17:53:48.540Z,100.0
2019-05-22T17:54:49.232Z,100.0
2019-05-22T17:55:49.952Z,99.6
2019-05-22T17:56:50.641Z,100.0
2019-05-22T17:57:51.352Z,100.0
2019-05-22T17:58:52.106Z,100.0
2019-05-22T17:59:52.780Z,100.0
2019-05-22T18:00:53.483Z,100.0
2019-05-22T18:01:54.174Z,100.0
2019-05-22T18:02:54.881Z,100.0
2019-05-22T18:03:55.577Z,100.0
2019-05-22T18:04:56.287Z,100.0
2019-05-22T18:05:56.974Z,100.0
2019-05-22T18:06:57.675Z,100.0
2019-05-22T18:07:58.376Z,100.0
2019-05-22T18:08:59.079Z,100.0
2019-05-22T18:09:59.779Z,100.0
2019-05-22T18:11:00.479Z,100.0
2019-05-22T18:12:01.174Z,100.0
2019-05-22T18:13:01.870Z,100.0
2019-05-22T18:14:02.581Z,100.0
2019-05-22T18:15:03.280Z,100.0
2019-05-22T18:16:04.730Z,100.0
2019-05-22T18:17:04.664Z,100.0
2019-05-22T18:18:05.358Z,100.0
2019-05-22T18:19:06.059Z,100.0
2019-05-22T18:20:06.768Z,100.0
2019-05-22T18:21:10.395Z,100.0
2019-05-22T18:22:08.157Z,100.0
2019-05-22T18:23:08.853Z,100.0
2019-05-22T18:24:09.546Z,100.0
2019-05-22T18:25:10.242Z,99.9
2019-05-22T18:26:10.944Z,100.0
2019-05-22T18:27:11.632Z,99.0
2019-05-22T18:28:12.346Z,98.7
2019-05-22T18:29:13.023Z,99.0
2019-05-22T18:30:13.724Z,98.7
2019-05-22T18:31:14.418Z,97.4
2019-05-22T18:32:15.123Z,96.8
2019-05-22T18:33:15.812Z,97.0
2019-05-22T18:34:16.518Z,96.4
2019-05-22T18:35:17.214Z,97.0
2019-05-22T18:36:17.922Z,96.8
2019-05-22T18:37:18.603Z,96.9
2019-05-22T18:38:19.303Z,96.6
2019-05-22T18:39:20.015Z,96.1
2019-05-22T18:40:20.789Z,95.6
2019-05-22T18:41:21.522Z,96.2
2019-05-22T18:42:22.210Z,95.4
2019-05-22T18:43:23.257Z,94.9
2019-05-22T18:44:23.737Z,94.4
2019-05-22T18:45:24.433Z,94.7
2019-05-22T18:46:25.132Z,95.0
2019-05-22T18:47:25.835Z,94.2
2019-05-22T18:48:26.543Z,94.1
2019-05-22T18:49:27.233Z,93.8
2019-05-22T18:50:27.981Z,93.1
2019-05-22T18:51:28.677Z,93.0
2019-05-22T18:52:40.649Z,92.3
2019-05-22T18:53:30.068Z,92.1
2019-05-22T18:54:30.766Z,91.6
2019-05-22T18:55:31.458Z,92.3
2019-05-22T18:56:32.177Z,91.8
2019-05-22T18:57:32.869Z,91.3
2019-05-22T18:58:33.558Z,90.8
2019-05-22T18:59:34.217Z,91.0
2019-05-22T19:00:34.910Z,90.2
2019-05-22T19:01:35.608Z,88.9
2019-05-22T19:02:36.312Z,88.8
2019-05-22T19:03:37.000Z,88.8
2019-05-22T19:04:37.851Z,88.3
2019-05-22T19:05:38.387Z,87.9
2019-05-22T19:06:39.083Z,87.8
2019-05-22T19:07:39.778Z,88.3
2019-05-22T19:08:40.469Z,87.9
2019-05-22T19:09:41.163Z,88.3
2019-05-22T19:10:41.905Z,88.2
2019-05-22T19:11:42.603Z,87.3
2019-05-22T19:12:43.294Z,86.6
2019-05-22T19:13:43.995Z,86.5
2019-05-22T19:14:44.674Z,84.8
2019-05-22T19:15:45.371Z,83.6
2019-05-22T19:16:46.063Z,83.0
2019-05-22T19:17:46.764Z,83.1
2019-05-22T19:18:47.456Z,81.6
2019-05-22T19:19:48.159Z,81.3
2019-05-22T19:20:48.857Z,80.8
2019-05-22T19:21:49.537Z,80.2
2019-05-22T19:22:59.344Z,80.0
2019-05-22T19:23:50.913Z,81.0
2019-05-22T19:24:51.605Z,81.4
2019-05-22T19:25:52.304Z,81.9
2019-05-22T19:26:52.986Z,83.4
2019-05-22T19:27:53.682Z,83.8
2019-05-22T19:28:54.376Z,84.4
2019-05-22T19:29:55.065Z,83.5
2019-05-22T19:30:55.957Z,83.2
2019-05-22T19:31:56.657Z,82.6
2019-05-22T19:32:57.344Z,81.5
2019-05-22T19:33:58.040Z,81.5
2019-05-22T19:34:58.720Z,81.1
2019-05-22T19:35:59.562Z,80.3
2019-05-22T19:37:00.251Z,79.6
2019-05-22T19:38:00.939Z,78.7
2019-05-22T19:39:01.628Z,77.9
2019-05-22T19:40:02.329Z,77.4
2019-05-22T19:41:02.997Z,76.5
2019-05-22T19:42:05.635Z,76.1
2019-05-22T19:43:04.397Z,75.6
2019-05-22T19:44:05.090Z,75.7
2019-05-22T19:45:05.782Z,75.5
2019-05-22T19:46:06.471Z,76.5
2019-05-22T19:47:07.169Z,76.2
2019-05-22T19:48:07.861Z,76.4
2019-05-22T19:49:08.563Z,76.4
2019-05-22T19:50:22.312Z,75.8
2019-05-22T19:51:09.926Z,75.5
2019-05-22T19:52:10.610Z,75.3
2019-05-22T19:53:18.728Z,75.0
2019-05-22T19:54:12.004Z,74.9
2019-05-22T19:55:12.716Z,74.3
2019-05-22T19:56:13.409Z,74.3
2019-05-22T19:57:14.088Z,73.5
2019-05-22T19:58:14.784Z,73.5
2019-05-22T19:59:15.468Z,72.5
2019-05-22T20:00:16.154Z,72.6
2019-05-22T20:01:16.849Z,71.9
2019-05-22T20:02:17.532Z,71.4
2019-05-22T20:03:18.226Z,71.0
2019-05-22T20:04:18.910Z,71.0
2019-05-22T20:05:19.596Z,70.7
2019-05-22T20:06:20.282Z,70.2
2019-05-22T20:07:20.974Z,69.3
2019-05-22T20:08:21.662Z,68.6
2019-05-22T20:09:22.346Z,67.7
2019-05-22T20:10:23.058Z,67.7
2019-05-22T20:11:23.722Z,67.0
2019-05-22T20:12:25.080Z,67.0
2019-05-22T20:13:25.097Z,66.2
2019-05-22T20:14:25.785Z,66.1
2019-05-22T20:15:26.473Z,65.3
2019-05-22T20:16:27.160Z,64.8
2019-05-22T20:17:27.817Z,64.6
2019-05-22T20:18:28.510Z,64.6
2019-05-22T20:19:29.199Z,63.7
2019-05-22T20:20:29.887Z,63.4
2019-05-22T20:21:30.584Z,63.4
2019-05-22T20:22:31.268Z,63.5
2019-05-22T20:23:35.954Z,63.5
2019-05-22T20:24:32.633Z,62.8
2019-05-22T20:25:33.319Z,61.6
2019-05-22T20:26:34.007Z,61.6
2019-05-22T20:27:34.747Z,60.8
2019-05-22T20:28:35.415Z,59.2
2019-05-22T20:29:36.100Z,58.5
2019-05-22T20:30:36.759Z,58.8
2019-05-22T20:31:37.449Z,57.8
2019-05-22T20:32:38.143Z,58.3
2019-05-22T20:33:38.824Z,57.3
2019-05-22T20:34:39.527Z,57.1
2019-05-22T20:35:40.251Z,57.1
2019-05-22T20:36:40.991Z,57.3
2019-05-22T20:37:41.646Z,57.0
2019-05-22T20:38:42.330Z,57.0
2019-05-22T20:39:43.023Z,56.8
2019-05-22T20:40:43.712Z,57.0
2019-05-22T20:41:44.397Z,56.2
2019-05-22T20:42:45.083Z,56.1
2019-05-22T20:43:45.772Z,55.4
2019-05-22T20:44:46.456Z,54.2
2019-05-22T20:45:47.146Z,54.1
2019-05-22T20:46:47.834Z,53.4
2019-05-22T20:47:48.526Z,53.4
2019-05-22T20:48:49.214Z,53.3
2019-05-22T20:49:49.920Z,53.0
2019-05-22T20:50:50.598Z,52.8
2019-05-22T20:51:51.296Z,53.0
2019-05-22T20:52:52.018Z,52.7
2019-05-22T20:53:54.543Z,52.7
2019-05-22T20:54:53.390Z,52.0
2019-05-22T20:55:54.077Z,52.2
2019-05-22T20:56:54.767Z,51.9
2019-05-22T20:57:55.454Z,50.9
2019-05-22T20:58:56.114Z,50.4
2019-05-22T20:59:56.798Z,50.0
2019-05-22T21:00:57.510Z,50.1
2019-05-22T21:01:58.186Z,50.0
2019-05-22T21:02:59.199Z,49.7
2019-05-22T21:03:59.792Z,49.3
2019-05-22T21:05:00.487Z,48.8
2019-05-22T21:06:01.166Z,48.8
2019-05-22T21:07:01.862Z,48.4
2019-05-22T21:08:02.540Z,48.0
2019-05-22T21:09:03.245Z,48.0
2019-05-22T21:10:03.919Z,48.8
2019-05-22T21:11:04.610Z,49.3
2019-05-22T21:12:05.294Z,49.7
2019-05-22T21:13:05.976Z,50.2
2019-05-22T21:14:06.663Z,50.3
2019-05-22T21:15:07.349Z,50.7
2019-05-22T21:16:08.040Z,50.7
2019-05-22T21:17:08.730Z,50.1
2019-05-22T21:18:09.384Z,48.8
2019-05-22T21:19:10.072Z,47.9
2019-05-22T21:20:11.256Z,47.9
2019-05-22T21:21:11.529Z,48.8
2019-05-22T21:22:12.211Z,48.8
2019-05-22T21:23:12.898Z,49.0
2019-05-22T21:24:13.595Z,49.3
2019-05-22T21:25:14.274Z,49.0
2019-05-22T21:26:14.964Z,48.7
2019-05-22T21:27:15.659Z,48.5
2019-05-22T21:28:16.352Z,47.9
2019-05-22T21:29:17.036Z,47.4
2019-05-22T21:30:17.727Z,47.2
2019-05-22T21:31:18.421Z,46.9
2019-05-22T21:32:19.113Z,46.2
2019-05-22T21:33:19.804Z,45.6
2019-05-22T21:34:20.494Z,45.7
2019-05-22T21:35:21.184Z,45.4
2019-05-22T21:36:21.872Z,44.9
2019-05-22T21:37:22.565Z,45.2
2019-05-22T21:38:23.254Z,44.6
2019-05-22T21:39:23.937Z,44.0
2019-05-22T21:40:24.627Z,44.0
2019-05-22T21:41:25.316Z,43.7
2019-05-22T21:42:26.062Z,43.3
2019-05-22T21:43:26.740Z,42.8
2019-05-22T21:44:27.431Z,42.9
2019-05-22T21:45:28.125Z,43.2
2019-05-22T21:46:28.812Z,42.8
2019-05-22T21:47:29.495Z,42.1
2019-05-22T21:48:30.186Z,41.4
2019-05-22T21:49:30.876Z,40.9
2019-05-22T21:50:31.562Z,39.8
2019-05-22T21:51:32.252Z,38.8
2019-05-22T21:52:32.941Z,38.0
2019-05-22T21:53:33.640Z,37.7
2019-05-22T21:54:34.326Z,36.8
2019-05-22T21:55:35.019Z,36.5
2019-05-22T21:56:35.707Z,36.2
2019-05-22T21:57:36.394Z,36.6
2019-05-22T21:58:37.090Z,36.5
2019-05-22T21:59:37.786Z,36.3
2019-05-22T22:00:38.480Z,36.0
2019-05-22T22:01:39.173Z,35.9
2019-05-22T22:02:39.861Z,36.0
2019-05-22T22:03:40.570Z,35.9
2019-05-22T22:04:41.242Z,35.5
2019-05-22T22:05:41.921Z,35.4
2019-05-22T22:06:42.609Z,35.7
2019-05-22T22:07:43.326Z,34.7
2019-05-22T22:08:43.981Z,34.3
2019-05-22T22:09:44.673Z,34.5
2019-05-22T22:10:45.367Z,33.9
2019-05-22T22:11:46.061Z,33.3
2019-05-22T22:12:46.750Z,33.0
2019-05-22T22:13:47.450Z,32.2
2019-05-22T22:14:48.131Z,32.3
2019-05-22T22:15:48.818Z,31.4
2019-05-22T22:16:49.510Z,31.0
2019-05-22T22:17:50.201Z,30.7
2019-05-22T22:18:50.888Z,30.5
2019-05-22T22:19:51.575Z,30.3
2019-05-22T22:20:52.260Z,29.6
2019-05-22T22:21:52.947Z,29.8
2019-05-22T22:22:53.637Z,29.5
2019-05-22T22:23:54.323Z,29.5
2019-05-22T22:24:55.013Z,28.8
2019-05-22T22:25:55.705Z,28.2
2019-05-22T22:26:56.393Z,27.8
2019-05-22T22:27:57.079Z,27.1
2019-05-22T22:28:57.770Z,27.2
2019-05-22T22:29:58.461Z,26.3
2019-05-22T22:30:59.144Z,26.3
2019-05-22T22:31:59.836Z,26.2
2019-05-22T22:33:00.649Z,25.4
2019-05-22T22:34:01.269Z,25.1
2019-05-22T22:35:01.977Z,24.6
2019-05-22T22:36:02.657Z,24.6
2019-05-22T22:37:03.341Z,23.9
2019-05-22T22:38:04.029Z,23.4
2019-05-22T22:39:04.723Z,23.3
2019-05-22T22:40:05.416Z,23.1
2019-05-22T22:41:06.091Z,22.7
2019-05-22T22:42:06.779Z,22.7
2019-05-22T22:43:07.466Z,22.4
2019-05-22T22:44:08.153Z,22.0
2019-05-22T22:45:08.841Z,21.0
2019-05-22T22:46:09.531Z,20.9
2019-05-22T22:47:10.219Z,20.3
2019-05-22T22:48:10.902Z,19.3
2019-05-22T22:49:11.592Z,18.7
2019-05-22T22:50:12.285Z,18.2
2019-05-22T22:51:12.994Z,18.0
2019-05-22T22:52:13.663Z,18.0
2019-05-22T22:53:14.377Z,17.9
2019-05-22T22:54:15.069Z,17.5
2019-05-22T22:55:15.753Z,16.8
2019-05-22T22:56:16.453Z,16.4
2019-05-22T22:57:17.125Z,15.9
2019-05-22T22:58:17.996Z,15.8
2019-05-22T22:59:18.491Z,15.2
2019-05-22T23:00:19.178Z,15.2
2019-05-22T23:01:19.871Z,14.9
2019-05-22T23:02:20.552Z,14.7
2019-05-22T23:03:21.236Z,13.7
2019-05-22T23:04:21.927Z,13.1
2019-05-22T23:05:22.614Z,13.5
2019-05-22T23:06:23.303Z,12.8
2019-05-22T23:07:23.980Z,12.5
2019-05-22T23:08:24.671Z,12.4
2019-05-22T23:09:25.356Z,11.9
2019-05-22T23:10:26.041Z,11.9
2019-05-22T23:11:26.737Z,11.8
2019-05-22T23:12:27.413Z,11.6
2019-05-22T23:13:28.102Z,10.7
2019-05-22T23:14:28.786Z,10.3
2019-05-22T23:15:29.475Z,10.1
2019-05-22T23:16:30.160Z,9.6
2019-05-22T23:17:30.837Z,9.5
2019-05-22T23:18:31.724Z,9.3
2019-05-22T23:19:32.412Z,9.5
2019-05-22T23:20:33.095Z,9.0
2019-05-22T23:21:33.782Z,8.8
2019-05-22T23:22:34.473Z,8.0
2019-05-22T23:23:35.149Z,7.5
2019-05-22T23:24:35.833Z,6.7
2019-05-22T23:25:36.516Z,6.5
2019-05-22T23:26:37.216Z,5.9
2019-05-22T23:27:37.899Z,5.4
2019-05-22T23:28:40.719Z,5.5
2019-05-22T23:29:39.265Z,5.2
2019-05-22T23:30:39.953Z,4.8
2019-05-22T23:31:40.638Z,4.8
2019-05-22T23:32:41.323Z,4.6
2019-05-22T23:33:42.162Z,4.0
2019-05-22T23:34:42.847Z,4.2
2019-05-22T23:35:43.534Z,3.7
2019-05-22T23:36:44.226Z,3.5
2019-05-22T23:37:44.912Z,3.4
2019-05-22T23:38:45.585Z,3.5
2019-05-22T23:39:46.276Z,3.4
2019-05-22T23:40:46.961Z,4.0
2019-05-22T23:41:47.710Z,3.9
2019-05-22T23:42:48.396Z,3.6
2019-05-22T23:43:49.091Z,3.0
2019-05-22T23:44:49.780Z,2.9
2019-05-22T23:45:50.461Z,2.9
2019-05-22T23:46:51.143Z,2.8
2019-05-22T23:47:51.830Z,2.8
2019-05-22T23:48:52.527Z,3.1
2019-05-22T23:49:53.208Z,3.0
2019-05-22T23:50:53.895Z,2.9
2019-05-22T23:51:54.583Z,2.9
2019-05-22T23:52:55.266Z,3.0
2019-05-22T23:53:55.952Z,3.0
2019-05-22T23:54:56.641Z,3.0
2019-05-22T23:55:57.330Z,3.3
2019-05-22T23:56:58.016Z,2.9
2019-05-22T23:57:58.714Z,2.9
2019-05-22T23:58:59.399Z,2.9
